sensor_id;sensor_type;location;lat;lon;timestamp;temperature;humidity
6186;DHT22;3126;52.738;8.316;2024-03-02T00:04:15;6.40;99.90
6186;DHT22;3126;52.738;8.316;2024-03-02T00:09:15;6.40;99.90
6186;DHT22;3126;52.738;8.316;2024-03-02T00:19:17;6.40;99.90
6186;DHT22;3126;52.738;8.316;2024-03-02T00:24:30;6.40;99.90
6186;DHT22;3126;52.738;8.316;2024-03-02T00:29:32;6.40;99.90
6186;DHT22;3126;52.738;8.316;2024-03-02T00:34:32;6.40;99.90
6186;DHT22;3126;52.738;8.316;2024-03-02T00:39:33;6.30;99.90
6186;DHT22;3126;52.738;8.316;2024-03-02T00:44:34;6.30;99.90
6186;DHT22;3126;52.738;8.316;2024-03-02T00:49:36;6.20;99.90
6186;DHT22;3126;52.738;8.316;2024-03-02T00:54:36;6.20;99.90
6186;DHT22;3126;52.738;8.316;2024-03-02T00:59:37;6.20;99.90
6186;DHT22;3126;52.738;8.316;2024-03-02T01:14:41;6.20;99.90
6186;DHT22;3126;52.738;8.316;2024-03-02T01:19:42;6.10;99.90
6186;DHT22;3126;52.738;8.316;2024-03-02T01:24:42;6.10;99.90
6186;DHT22;3126;52.738;8.316;2024-03-02T01:29:43;6.10;99.90
6186;DHT22;3126;52.738;8.316;2024-03-02T02:24:54;5.60;99.90
6186;DHT22;3126;52.738;8.316;2024-03-02T02:29:55;5.30;99.90
6186;DHT22;3126;52.738;8.316;2024-03-02T02:39:57;5.10;99.90
6186;DHT22;3126;52.738;8.316;2024-03-02T03:00:06;5.10;99.90
6186;DHT22;3126;52.738;8.316;2024-03-02T03:10:13;5.40;99.90
6186;DHT22;3126;52.738;8.316;2024-03-02T03:20:14;4.80;99.90
6186;DHT22;3126;52.738;8.316;2024-03-02T03:25:15;4.70;99.90
6186;DHT22;3126;52.738;8.316;2024-03-02T03:30:16;4.70;99.90
6186;DHT22;3126;52.738;8.316;2024-03-02T03:35:17;4.70;99.90
6186;DHT22;3126;52.738;8.316;2024-03-02T03:40:18;4.70;99.90
6186;DHT22;3126;52.738;8.316;2024-03-02T03:45:19;4.70;99.90
6186;DHT22;3126;52.738;8.316;2024-03-02T03:50:20;4.70;99.90
6186;DHT22;3126;52.738;8.316;2024-03-02T03:55:21;4.70;99.90
6186;DHT22;3126;52.738;8.316;2024-03-02T04:00:21;4.70;99.90
6186;DHT22;3126;52.738;8.316;2024-03-02T04:05:22;4.70;99.90
6186;DHT22;3126;52.738;8.316;2024-03-02T04:10:23;4.70;99.90
6186;DHT22;3126;52.738;8.316;2024-03-02T04:15:24;4.70;99.90
6186;DHT22;3126;52.738;8.316;2024-03-02T04:20:25;4.80;99.90
6186;DHT22;3126;52.738;8.316;2024-03-02T04:25:25;4.80;99.90
6186;DHT22;3126;52.738;8.316;2024-03-02T04:30:26;4.80;99.90
6186;DHT22;3126;52.738;8.316;2024-03-02T04:35:27;4.80;99.90
6186;DHT22;3126;52.738;8.316;2024-03-02T04:40:27;4.80;99.90
6186;DHT22;3126;52.738;8.316;2024-03-02T04:45:28;4.70;99.90
6186;DHT22;3126;52.738;8.316;2024-03-02T04:50:29;4.70;99.90
6186;DHT22;3126;52.738;8.316;2024-03-02T04:55:29;4.70;99.90
6186;DHT22;3126;52.738;8.316;2024-03-02T05:00:56;4.70;99.90
6186;DHT22;3126;52.738;8.316;2024-03-02T05:05:57;4.70;99.90
6186;DHT22;3126;52.738;8.316;2024-03-02T05:10:57;4.70;99.90
6186;DHT22;3126;52.738;8.316;2024-03-02T05:16:18;4.70;99.90
6186;DHT22;3126;52.738;8.316;2024-03-02T05:21:18;4.70;99.90
6186;DHT22;3126;52.738;8.316;2024-03-02T05:26:19;4.70;99.90
6186;DHT22;3126;52.738;8.316;2024-03-02T05:31:19;4.70;99.90
6186;DHT22;3126;52.738;8.316;2024-03-02T05:36:20;4.70;99.90
6186;DHT22;3126;52.738;8.316;2024-03-02T05:41:21;4.70;99.90
6186;DHT22;3126;52.738;8.316;2024-03-02T05:46:21;4.60;99.90
6186;DHT22;3126;52.738;8.316;2024-03-02T05:51:22;4.70;99.90
6186;DHT22;3126;52.738;8.316;2024-03-02T05:56:23;4.70;99.90
6186;DHT22;3126;52.738;8.316;2024-03-02T06:01:23;4.70;99.90
6186;DHT22;3126;52.738;8.316;2024-03-02T06:06:28;4.70;99.90
6186;DHT22;3126;52.738;8.316;2024-03-02T06:11:29;4.70;99.90
6186;DHT22;3126;52.738;8.316;2024-03-02T06:16:29;4.70;99.90
6186;DHT22;3126;52.738;8.316;2024-03-02T06:21:30;4.70;99.90
6186;DHT22;3126;52.738;8.316;2024-03-02T06:26:31;4.70;99.90
6186;DHT22;3126;52.738;8.316;2024-03-02T06:31:32;4.80;99.90
6186;DHT22;3126;52.738;8.316;2024-03-02T06:36:32;4.80;99.90
6186;DHT22;3126;52.738;8.316;2024-03-02T06:41:33;4.80;99.90
6186;DHT22;3126;52.738;8.316;2024-03-02T06:51:35;4.90;99.90
6186;DHT22;3126;52.738;8.316;2024-03-02T07:01:37;5.20;99.90
6186;DHT22;3126;52.738;8.316;2024-03-02T07:06:38;5.20;99.90
6186;DHT22;3126;52.738;8.316;2024-03-02T07:11:39;5.20;99.90
6186;DHT22;3126;52.738;8.316;2024-03-02T07:16:39;5.30;99.90
6186;DHT22;3126;52.738;8.316;2024-03-02T07:21:41;5.30;99.90
6186;DHT22;3126;52.738;8.316;2024-03-02T07:26:42;5.30;99.90
6186;DHT22;3126;52.738;8.316;2024-03-02T07:31:43;5.30;99.90
6186;DHT22;3126;52.738;8.316;2024-03-02T07:36:44;5.40;99.90
6186;DHT22;3126;52.738;8.316;2024-03-02T07:41:45;5.50;99.90
6186;DHT22;3126;52.738;8.316;2024-03-02T07:46:47;5.60;99.90
6186;DHT22;3126;52.738;8.316;2024-03-02T07:51:47;5.80;99.90
6186;DHT22;3126;52.738;8.316;2024-03-02T07:56:48;6.10;99.90
6186;DHT22;3126;52.738;8.316;2024-03-02T08:16:53;8.10;99.90
6186;DHT22;3126;52.738;8.316;2024-03-02T09:17:06;7.80;99.90
6186;DHT22;3126;52.738;8.316;2024-03-02T18:40:21;11.40;91.60
6186;DHT22;3126;52.738;8.316;2024-03-02T18:45:22;10.80;86.20
6186;DHT22;3126;52.738;8.316;2024-03-02T18:50:22;10.70;86.40
6186;DHT22;3126;52.738;8.316;2024-03-02T18:55:23;10.60;87.10
6186;DHT22;3126;52.738;8.316;2024-03-02T19:00:23;10.50;88.30
6186;DHT22;3126;52.738;8.316;2024-03-02T19:10:25;10.40;89.10
6186;DHT22;3126;52.738;8.316;2024-03-02T19:30:28;10.10;90.50
6186;DHT22;3126;52.738;8.316;2024-03-02T19:35:29;9.70;93.20
6186;DHT22;3126;52.738;8.316;2024-03-02T19:40:29;9.80;93.40
6186;DHT22;3126;52.738;8.316;2024-03-02T19:45:30;9.80;93.90
6186;DHT22;3126;52.738;8.316;2024-03-02T19:50:31;9.80;94.20
6186;DHT22;3126;52.738;8.316;2024-03-02T19:55:31;9.80;94.50
6186;DHT22;3126;52.738;8.316;2024-03-02T20:00:32;9.80;94.30
6186;DHT22;3126;52.738;8.316;2024-03-02T20:05:32;9.80;94.60
6186;DHT22;3126;52.738;8.316;2024-03-02T20:10:33;9.70;95.20
6186;DHT22;3126;52.738;8.316;2024-03-02T20:15:34;9.60;95.60
6186;DHT22;3126;52.738;8.316;2024-03-02T20:20:35;9.60;95.70
6186;DHT22;3126;52.738;8.316;2024-03-02T20:25:35;9.60;96.00
6186;DHT22;3126;52.738;8.316;2024-03-02T20:30:37;9.50;96.70
6186;DHT22;3126;52.738;8.316;2024-03-02T20:35:37;9.40;96.80
6186;DHT22;3126;52.738;8.316;2024-03-02T20:40:38;9.40;97.00
6186;DHT22;3126;52.738;8.316;2024-03-02T20:45:41;9.30;97.50
6186;DHT22;3126;52.738;8.316;2024-03-02T20:50:41;9.20;97.80
6186;DHT22;3126;52.738;8.316;2024-03-02T20:55:42;9.10;98.30
6186;DHT22;3126;52.738;8.316;2024-03-02T21:00:42;9.00;98.40
6186;DHT22;3126;52.738;8.316;2024-03-02T21:05:43;9.00;98.70
6186;DHT22;3126;52.738;8.316;2024-03-02T21:10:44;9.00;98.90
6186;DHT22;3126;52.738;8.316;2024-03-02T21:15:45;8.90;99.40
6186;DHT22;3126;52.738;8.316;2024-03-02T21:20:45;8.80;99.50
6186;DHT22;3126;52.738;8.316;2024-03-02T21:25:46;8.80;99.70
6186;DHT22;3126;52.738;8.316;2024-03-02T21:30:47;8.70;99.80
6186;DHT22;3126;52.738;8.316;2024-03-02T21:35:47;8.70;99.90
6186;DHT22;3126;52.738;8.316;2024-03-02T22:51:08;8.70;99.90
6186;DHT22;3126;52.738;8.316;2024-03-02T22:56:09;8.00;99.90
